Time;durP1;ratioP1;P1;durP2;ratioP2;P2;SDS_P1;SDS_P2;PMS_P1;PMS_P2;Temp;Humidity;BMP_temperature;BMP_pressure;BME280_temperature;BME280_humidity;BME280_pressure;Samples;Min_cycle;Max_cycle;Signal;HPM_P1;HPM_P2
2023/08/17 00:01:33;;;;;;;4.57;3.03;;;;;20.40;98753.00;;;;5055254;28;20049;-66
2023/08/17 00:04:00;;;;;;;4.82;2.97;;;;;20.30;98753.00;;;;5073355;28;20068;-65
2023/08/17 00:06:27;;;;;;;5.60;2.97;;;;;20.30;98753.00;;;;5055505;28;20082;-65
2023/08/17 00:08:53;;;;;;;5.65;3.38;;;;;20.20;98756.00;;;;5038748;28;20535;-65
2023/08/17 00:11:20;;;;;;;4.32;3.58;;;;;20.20;98747.00;;;;5055017;28;20040;-64
2023/08/17 00:13:46;;;;;;;4.40;3.00;;;;;20.20;98742.00;;;;5055131;28;20040;-65
2023/08/17 00:16:13;;;;;;;4.95;3.45;;;;;20.30;98744.00;;;;5038590;28;20106;-65
2023/08/17 00:18:40;;;;;;;3.78;3.10;;;;;20.20;98741.00;;;;5055309;28;20048;-65
2023/08/17 00:21:06;;;;;;;3.05;2.70;;;;;20.20;98736.00;;;;5038339;28;20144;-65
2023/08/17 00:23:33;;;;;;;4.07;3.08;;;;;20.20;98739.00;;;;5054864;28;20579;-65
2023/08/17 00:26:00;;;;;;;3.42;2.70;;;;;20.20;98735.00;;;;5072676;28;20041;-65
2023/08/17 00:28:27;;;;;;;5.47;3.45;;;;;20.20;98743.00;;;;5054695;28;20052;-65
2023/08/17 00:30:53;;;;;;;4.15;2.88;;;;;20.20;98737.00;;;;5038339;28;20245;-65
2023/08/17 00:33:20;;;;;;;5.32;3.35;;;;;20.20;98728.00;;;;5054476;28;20048;-65
2023/08/17 00:35:46;;;;;;;4.30;3.20;;;;;20.20;98722.00;;;;5054586;28;20405;-65
2023/08/17 00:38:13;;;;;;;3.13;2.83;;;;;20.20;98737.00;;;;5054984;28;20071;-66
2023/08/17 00:40:40;;;;;;;5.20;3.17;;;;;20.30;98726.00;;;;5053786;28;20080;-65
2023/08/17 00:43:07;;;;;;;6.03;3.30;;;;;20.30;98722.00;;;;5037593;28;20070;-65
2023/08/17 00:45:35;;;;;;;4.18;3.20;;;;;20.30;98725.00;;;;5072542;28;20131;-65
2023/08/17 00:48:05;;;;;;;7.43;3.65;;;;;20.30;98726.00;;;;5054614;28;20404;-65
2023/08/17 00:50:32;;;;;;;5.50;4.03;;;;;20.30;98724.00;;;;5037563;28;20048;-65
2023/08/17 00:52:58;;;;;;;6.35;3.40;;;;;20.20;98726.00;;;;5054166;28;20542;-65
2023/08/17 00:55:27;;;;;;;3.65;3.08;;;;;20.20;98730.00;;;;5037823;28;20048;-65
2023/08/17 00:57:56;;;;;;;3.45;2.85;;;;;20.20;98719.00;;;;5053843;28;20051;-65
2023/08/17 01:00:24;;;;;;;4.72;3.20;;;;;20.20;98714.00;;;;5037206;28;20504;-65
2023/08/17 01:02:51;;;;;;;6.40;3.22;;;;;20.10;98708.00;;;;5037905;28;20093;-65
2023/08/17 01:05:18;;;;;;;4.70;3.35;;;;;20.10;98713.00;;;;5054098;28;20469;-65
2023/08/17 01:07:45;;;;;;;6.32;3.45;;;;;20.10;98717.00;;;;5054131;28;20543;-65
2023/08/17 01:10:11;;;;;;;5.22;3.10;;;;;20.10;98718.00;;;;5053869;28;20071;-65
2023/08/17 01:12:45;;;;;;;5.57;3.17;;;;;20.00;98713.00;;;;5072056;28;20045;-67
2023/08/17 01:15:34;;;;;;;7.95;3.60;;;;;19.90;98710.00;;;;5054118;28;20048;-67
2023/08/17 01:18:16;;;;;;;4.32;3.17;;;;;19.90;98717.00;;;;5072061;28;20049;-66
2023/08/17 01:20:44;;;;;;;4.50;3.40;;;;;19.90;98712.00;;;;5037670;28;20052;-65
2023/08/17 01:23:11;;;;;;;7.43;3.90;;;;;19.90;98703.00;;;;5037768;28;20064;-65
2023/08/17 01:25:38;;;;;;;5.85;3.08;;;;;19.90;98708.00;;;;5054191;28;20044;-65
2023/08/17 01:28:05;;;;;;;5.45;3.30;;;;;19.90;98698.00;;;;5054055;28;20144;-65
2023/08/17 01:30:55;;;;;;;4.55;3.20;;;;;19.80;98707.00;;;;5053937;28;20488;-65
2023/08/17 01:33:37;;;;;;;4.55;3.25;;;;;19.80;98698.00;;;;5054208;28;20044;-66
2023/08/17 01:36:26;;;;;;;4.47;3.63;;;;;19.70;98699.00;;;;5037675;28;20044;-67
2023/08/17 01:38:55;;;;;;;7.75;3.72;;;;;19.60;98695.00;;;;5071690;28;20094;-65
2023/08/17 01:41:24;;;;;;;6.85;3.45;;;;;19.70;98701.00;;;;5071730;28;20417;-65
2023/08/17 01:43:51;;;;;;;4.70;3.42;;;;;19.70;98701.00;;;;5037594;28;20139;-65
2023/08/17 01:46:18;;;;;;;3.78;3.47;;;;;19.80;98698.00;;;;5053746;28;20135;-65
2023/08/17 01:48:45;;;;;;;5.18;3.50;;;;;19.80;98705.00;;;;5054137;28;20052;-65
2023/08/17 01:51:18;;;;;;;4.43;3.15;;;;;19.80;98704.00;;;;5053577;28;20494;-65
2023/08/17 01:53:45;;;;;;;3.47;3.17;;;;;19.80;98700.00;;;;5056345;28;20048;-65
2023/08/17 01:56:12;;;;;;;5.95;3.45;;;;;19.80;98703.00;;;;5057609;28;20047;-65
2023/08/17 01:58:39;;;;;;;7.20;3.30;;;;;19.90;98708.00;;;;5057527;28;20072;-65
2023/08/17 02:01:05;;;;;;;5.50;3.58;;;;;20.00;98702.00;;;;5040871;28;20472;-66
2023/08/17 02:03:32;;;;;;;6.38;3.30;;;;;20.00;98694.00;;;;5075452;28;20051;-66
2023/08/17 02:05:59;;;;;;;7.53;2.78;;;;;20.00;98694.00;;;;5075092;28;20044;-66
2023/08/17 02:08:26;;;;;;;5.30;3.17;;;;;20.00;98689.00;;;;5057282;28;20143;-66
2023/08/17 02:10:53;;;;;;;6.07;3.25;;;;;20.00;98699.00;;;;5057305;28;20040;-66
2023/08/17 02:13:20;;;;;;;4.28;2.67;;;;;20.00;98693.00;;;;5057155;28;20040;-66
2023/08/17 02:15:47;;;;;;;4.32;3.15;;;;;20.00;98699.00;;;;5056858;28;20102;-66
2023/08/17 02:18:14;;;;;;;5.40;3.20;;;;;19.80;98684.00;;;;5075149;28;20044;-66
2023/08/17 02:20:41;;;;;;;5.70;3.33;;;;;19.70;98682.00;;;;5074740;28;20115;-66
2023/08/17 02:23:07;;;;;;;2.97;2.78;;;;;19.80;98684.00;;;;5057555;28;20044;-66
2023/08/17 02:25:37;;;;;;;5.25;3.30;;;;;19.80;98685.00;;;;5075157;28;20048;-66
2023/08/17 02:28:04;;;;;;;3.58;2.90;;;;;19.90;98676.00;;;;5040511;28;20055;-66
2023/08/17 02:30:31;;;;;;;3.20;2.47;;;;;19.80;98676.00;;;;5074874;28;20058;-66
2023/08/17 02:32:58;;;;;;;4.75;2.60;;;;;19.80;98677.00;;;;5057045;28;20045;-66
2023/08/17 02:35:25;;;;;;;8.43;3.38;;;;;19.70;98681.00;;;;5056519;28;20048;-66
2023/08/17 02:37:51;;;;;;;6.80;2.72;;;;;19.60;98664.00;;;;5040404;28;20047;-66
2023/08/17 02:40:18;;;;;;;6.35;3.17;;;;;19.50;98665.00;;;;5056704;28;20079;-66
2023/08/17 02:42:44;;;;;;;5.20;2.88;;;;;19.50;98669.00;;;;5075135;28;20051;-68
2023/08/17 02:45:11;;;;;;;5.90;2.65;;;;;19.50;98669.00;;;;5074949;28;20112;-66
2023/08/17 02:47:38;;;;;;;6.68;3.30;;;;;19.60;98666.00;;;;5074808;28;20045;-66
2023/08/17 02:50:05;;;;;;;3.58;2.97;;;;;19.60;98675.00;;;;5039845;28;20053;-66
2023/08/17 02:52:33;;;;;;;5.22;3.30;;;;;19.60;98669.00;;;;5056908;28;20465;-68
2023/08/17 02:55:00;;;;;;;3.60;3.25;;;;;19.50;98678.00;;;;5056714;28;20055;-66
2023/08/17 02:57:26;;;;;;;4.45;3.15;;;;;19.50;98675.00;;;;5056474;28;20054;-66
2023/08/17 02:59:53;;;;;;;3.40;3.10;;;;;19.40;98668.00;;;;5039349;28;20056;-66
2023/08/17 03:02:20;;;;;;;3.85;3.17;;;;;19.40;98671.00;;;;5056278;28;20051;-66
2023/08/17 03:04:46;;;;;;;5.32;3.10;;;;;19.40;98670.00;;;;5055392;28;20044;-66
2023/08/17 03:07:13;;;;;;;6.03;3.17;;;;;19.40;98670.00;;;;5056541;28;20131;-66
2023/08/17 03:09:40;;;;;;;4.90;3.15;;;;;19.50;98668.00;;;;5039689;28;20049;-66
2023/08/17 03:12:07;;;;;;;3.13;2.83;;;;;19.50;98674.00;;;;5056450;28;20076;-67
2023/08/17 03:14:33;;;;;;;3.58;3.25;;;;;19.50;98663.00;;;;5074137;28;20460;-66
2023/08/17 03:17:00;;;;;;;5.38;3.33;;;;;19.50;98657.00;;;;5055530;28;20052;-66
2023/08/17 03:19:27;;;;;;;3.58;3.28;;;;;19.60;98659.00;;;;5055448;28;20143;-66
2023/08/17 03:21:54;;;;;;;5.85;3.08;;;;;19.60;98658.00;;;;5056063;28;20048;-67
2023/08/17 03:24:21;;;;;;;4.13;3.40;;;;;19.60;98662.00;;;;5056074;28;20044;-66
2023/08/17 03:26:47;;;;;;;5.78;4.20;;;;;19.50;98665.00;;;;5055965;28;20535;-65
2023/08/17 03:29:14;;;;;;;7.97;6.88;;;;;19.30;98657.00;;;;5055541;28;20052;-66
2023/08/17 03:31:41;;;;;;;4.70;4.22;;;;;19.20;98653.00;;;;5073912;28;20597;-66
2023/08/17 03:34:08;;;;;;;7.43;4.75;;;;;19.20;98668.00;;;;5055607;28;20044;-66
2023/08/17 03:36:35;;;;;;;7.32;5.95;;;;;19.20;98665.00;;;;5039550;28;20040;-66
2023/08/17 03:39:02;;;;;;;5.72;3.30;;;;;19.20;98666.00;;;;5039425;28;20041;-65
2023/08/17 03:41:30;;;;;;;4.82;3.70;;;;;19.30;98667.00;;;;5055191;28;20048;-66
2023/08/17 03:43:57;;;;;;;12.93;5.60;;;;;19.40;98665.00;;;;5055315;28;20052;-66
2023/08/17 03:46:24;;;;;;;11.25;6.85;;;;;19.30;98665.00;;;;5055575;28;20056;-66
2023/08/17 03:48:50;;;;;;;12.93;8.18;;;;;19.20;98658.00;;;;5055706;28;20044;-66
2023/08/17 03:51:17;;;;;;;14.02;5.65;;;;;19.20;98669.00;;;;5038934;28;20048;-66
2023/08/17 03:53:44;;;;;;;9.98;5.82;;;;;19.30;98670.00;;;;5055341;28;20048;-66
2023/08/17 03:56:10;;;;;;;15.13;8.10;;;;;19.40;98669.00;;;;5055649;28;20037;-65
2023/08/17 03:58:37;;;;;;;12.88;6.93;;;;;19.50;98675.00;;;;5038738;28;20098;-66
2023/08/17 04:01:06;;;;;;;14.57;7.00;;;;;19.60;98670.00;;;;5055067;28;20541;-66
2023/08/17 04:03:33;;;;;;;15.40;6.72;;;;;19.70;98670.00;;;;5055218;28;20048;-66
2023/08/17 04:06:07;;;;;;;10.93;6.15;;;;;19.70;98676.00;;;;5072819;28;20113;-66
2023/08/17 04:08:33;;;;;;;31.27;6.90;;;;;19.70;98677.00;;;;5055121;28;20582;-66
2023/08/17 04:11:00;;;;;;;20.10;5.63;;;;;19.70;98678.00;;;;5072909;28;20418;-66
2023/08/17 04:13:27;;;;;;;17.77;6.40;;;;;19.60;98677.00;;;;5039162;28;20041;-67
2023/08/17 04:15:54;;;;;;;22.10;6.88;;;;;19.60;98670.00;;;;5072765;28;20048;-67
2023/08/17 04:18:21;;;;;;;15.70;6.63;;;;;19.60;98681.00;;;;5055441;28;20106;-68
2023/08/17 04:20:48;;;;;;;13.40;6.65;;;;;19.70;98682.00;;;;5038465;28;20058;-67
2023/08/17 04:23:15;;;;;;;22.33;7.10;;;;;19.70;98686.00;;;;5054887;28;20076;-66
2023/08/17 04:25:43;;;;;;;17.50;6.63;;;;;19.70;98690.00;;;;5072933;28;20045;-67
2023/08/17 04:28:09;;;;;;;14.07;6.50;;;;;19.80;98691.00;;;;5054963;28;20044;-67
2023/08/17 04:30:37;;;;;;;11.30;7.57;;;;;19.80;98686.00;;;;5054832;28;20059;-68
2023/08/17 04:33:05;;;;;;;11.00;6.47;;;;;19.80;98684.00;;;;5054605;28;20143;-66
2023/08/17 04:35:31;;;;;;;15.85;6.20;;;;;19.90;98693.00;;;;5054221;28;20040;-66
2023/08/17 04:37:58;;;;;;;10.88;6.53;;;;;19.90;98690.00;;;;5038292;28;20045;-66
2023/08/17 04:40:25;;;;;;;10.45;5.75;;;;;19.80;98686.00;;;;5038245;28;20056;-66
2023/08/17 04:42:51;;;;;;;12.80;6.93;;;;;19.60;98688.00;;;;5038074;28;20041;-66
2023/08/17 04:45:18;;;;;;;11.32;5.80;;;;;19.40;98691.00;;;;5072705;28;20071;-66
2023/08/17 04:47:46;;;;;;;14.35;6.50;;;;;19.50;98697.00;;;;5054499;28;20048;-66
2023/08/17 04:50:16;;;;;;;10.40;6.05;;;;;19.50;98704.00;;;;5054176;28;20044;-66
2023/08/17 04:52:44;;;;;;;9.18;5.35;;;;;19.40;98700.00;;;;5054233;28;20406;-66
2023/08/17 04:55:13;;;;;;;8.40;4.95;;;;;19.50;98701.00;;;;5038031;28;20058;-66
2023/08/17 04:57:41;;;;;;;9.82;5.03;;;;;19.50;98702.00;;;;5054448;28;20051;-66
2023/08/17 05:00:10;;;;;;;9.55;4.53;;;;;19.50;98696.00;;;;5053992;28;20056;-66
2023/08/17 05:02:37;;;;;;;6.90;4.53;;;;;19.40;98698.00;;;;5054590;28;20127;-66
2023/08/17 05:05:05;;;;;;;7.07;4.30;;;;;19.50;98701.00;;;;5053970;28;20036;-66
2023/08/17 05:07:33;;;;;;;8.15;5.35;;;;;19.70;98702.00;;;;5054137;28;20457;-66
2023/08/17 05:10:00;;;;;;;10.57;4.32;;;;;19.80;98706.00;;;;5053957;28;20417;-66
2023/08/17 05:12:28;;;;;;;6.13;4.25;;;;;19.80;98708.00;;;;5054343;28;20048;-66
2023/08/17 05:14:55;;;;;;;5.57;3.70;;;;;19.90;98707.00;;;;5054373;28;20452;-66
2023/08/17 05:17:21;;;;;;;6.10;3.47;;;;;19.90;98708.00;;;;5037697;28;20045;-66
2023/08/17 05:19:48;;;;;;;6.28;3.83;;;;;20.00;98707.00;;;;5053287;28;20516;-66
2023/08/17 05:22:15;;;;;;;5.18;3.85;;;;;20.00;98704.00;;;;5054014;28;20045;-66
2023/08/17 05:24:43;;;;;;;5.05;3.17;;;;;20.00;98709.00;;;;5037719;28;20052;-66
2023/08/17 05:27:10;;;;;;;7.25;3.60;;;;;20.00;98708.00;;;;5055565;28;20139;-66
2023/08/17 05:29:36;;;;;;;7.72;3.80;;;;;20.00;98713.00;;;;5060684;28;20501;-66
2023/08/17 05:32:04;;;;;;;6.18;4.07;;;;;20.00;98709.00;;;;5060696;28;20121;-66
2023/08/17 05:34:30;;;;;;;7.35;3.33;;;;;19.90;98717.00;;;;5060407;28;20055;-66
2023/08/17 05:36:57;;;;;;;4.15;3.55;;;;;19.90;98713.00;;;;5060642;28;20041;-66
2023/08/17 05:39:24;;;;;;;3.58;2.85;;;;;19.90;98726.00;;;;5060493;28;20143;-66
2023/08/17 05:41:50;;;;;;;3.83;3.08;;;;;20.00;98733.00;;;;5078708;28;20488;-66
2023/08/17 05:44:17;;;;;;;4.13;3.10;;;;;19.90;98728.00;;;;5044122;28;20051;-65
2023/08/17 05:46:44;;;;;;;3.78;2.78;;;;;19.80;98734.00;;;;5079725;28;20485;-66
2023/08/17 05:49:11;;;;;;;6.00;3.25;;;;;19.80;98729.00;;;;5061921;28;20040;-65
2023/08/17 05:51:38;;;;;;;6.68;3.88;;;;;19.80;98726.00;;;;5061790;28;20050;-65
2023/08/17 05:54:05;;;;;;;4.60;4.00;;;;;19.90;98731.00;;;;5061126;28;20041;-65
2023/08/17 05:56:31;;;;;;;5.05;4.10;;;;;20.00;98733.00;;;;5062144;28;20079;-65
2023/08/17 05:58:58;;;;;;;4.90;3.70;;;;;20.10;98732.00;;;;5061111;28;20045;-65
2023/08/17 06:01:25;;;;;;;4.43;3.38;;;;;19.90;98730.00;;;;5078716;28;20053;-65
2023/08/17 06:03:52;;;;;;;14.23;4.22;;;;;19.90;98733.00;;;;5060884;28;20052;-64
2023/08/17 06:06:19;;;;;;;5.35;3.92;;;;;20.10;98740.00;;;;5044590;28;20044;-65
2023/08/17 06:08:45;;;;;;;4.30;3.50;;;;;20.30;98752.00;;;;5078786;28;20044;-64
2023/08/17 06:11:12;;;;;;;5.00;3.50;;;;;20.40;98752.00;;;;5060903;28;20143;-66
2023/08/17 06:13:39;;;;;;;3.92;3.33;;;;;20.40;98748.00;;;;5044603;28;20076;-67
2023/08/17 06:16:05;;;;;;;3.47;3.05;;;;;20.60;98746.00;;;;5060320;28;20131;-64
2023/08/17 06:18:32;;;;;;;3.58;3.00;;;;;20.60;98743.00;;;;5044241;28;20113;-66
2023/08/17 06:20:58;;;;;;;3.85;3.42;;;;;20.70;98746.00;;;;5060881;28;20504;-64
2023/08/17 06:23:25;;;;;;;3.90;3.03;;;;;20.60;98752.00;;;;5061012;28;20041;-63
2023/08/17 06:25:55;;;;;;;3.85;2.95;;;;;20.60;98756.00;;;;5060924;28;20040;-64
2023/08/17 06:28:22;;;;;;;3.67;3.03;;;;;20.50;98751.00;;;;5061027;28;20063;-64
2023/08/17 06:30:53;;;;;;;5.72;3.22;;;;;20.40;98747.00;;;;5060967;28;20042;-64
2023/08/17 06:33:20;;;;;;;4.53;3.40;;;;;20.30;98747.00;;;;5060553;28;20053;-66
2023/08/17 06:35:47;;;;;;;3.65;3.35;;;;;20.30;98742.00;;;;5043644;28;20135;-64
2023/08/17 06:38:13;;;;;;;5.35;3.20;;;;;20.50;98743.00;;;;5060179;28;20052;-64
2023/08/17 06:40:40;;;;;;;3.13;2.83;;;;;20.50;98742.00;;;;5057366;28;20148;-64
2023/08/17 06:43:06;;;;;;;3.25;2.80;;;;;20.70;98746.00;;;;5057231;28;20553;-64
2023/08/17 06:45:35;;;;;;;3.58;2.70;;;;;20.60;98739.00;;;;5075142;28;20111;-64
2023/08/17 06:48:02;;;;;;;3.25;2.78;;;;;20.40;98748.00;;;;5057433;28;20052;-64
2023/08/17 06:50:28;;;;;;;3.05;2.40;;;;;20.30;98739.00;;;;5057140;28;20115;-64
2023/08/17 06:52:55;;;;;;;3.28;2.78;;;;;20.30;98750.00;;;;5075233;28;20052;-64
2023/08/17 06:55:21;;;;;;;2.95;2.60;;;;;20.50;98743.00;;;;5057170;28;20041;-64
2023/08/17 06:57:51;;;;;;;3.10;2.80;;;;;20.60;98740.00;;;;5056866;28;20063;-65
2023/08/17 07:00:21;;;;;;;3.03;2.72;;;;;20.60;98735.00;;;;5056589;28;20090;-65
2023/08/17 07:02:48;;;;;;;4.30;2.90;;;;;20.60;98745.00;;;;5074441;28;20123;-65
2023/08/17 07:05:22;;;;;;;3.53;2.90;;;;;20.60;98748.00;;;;5058719;28;20082;-65
2023/08/17 07:07:49;;;;;;;6.93;3.42;;;;;20.60;98744.00;;;;5074739;28;20133;-66
2023/08/17 07:10:15;;;;;;;3.92;2.92;;;;;20.60;98754.00;;;;5073967;28;20405;-66
2023/08/17 07:12:42;;;;;;;5.28;3.35;;;;;20.60;98763.00;;;;5056275;28;20052;-66
2023/08/17 07:15:10;;;;;;;3.83;3.00;;;;;20.70;98760.00;;;;5074007;28;20040;-65
2023/08/17 07:17:36;;;;;;;4.03;3.22;;;;;20.70;98764.00;;;;5056163;28;20068;-65
2023/08/17 07:20:07;;;;;;;6.03;3.30;;;;;20.80;98763.00;;;;5073583;28;20075;-66
2023/08/17 07:22:42;;;;;;;5.65;4.55;;;;;20.80;98762.00;;;;5056126;28;20063;-65
2023/08/17 07:25:09;;;;;;;3.97;3.63;;;;;20.90;98763.00;;;;5056202;28;20040;-66
2023/08/17 07:27:36;;;;;;;4.00;3.50;;;;;21.10;98762.00;;;;5056321;28;20094;-66
2023/08/17 07:30:02;;;;;;;4.50;3.97;;;;;21.20;98758.00;;;;5039354;28;20139;-66
2023/08/17 07:32:29;;;;;;;5.20;4.70;;;;;21.10;98756.00;;;;5056090;28;20051;-66
2023/08/17 07:34:55;;;;;;;6.75;5.00;;;;;21.00;98758.00;;;;5073502;28;20047;-66
2023/08/17 07:37:22;;;;;;;6.05;4.22;;;;;21.00;98760.00;;;;5073799;28;20051;-66
2023/08/17 07:39:49;;;;;;;4.90;3.90;;;;;21.00;98753.00;;;;5073726;28;20119;-66
2023/08/17 07:42:15;;;;;;;6.30;5.70;;;;;21.20;98751.00;;;;5073649;28;20040;-66
2023/08/17 07:44:42;;;;;;;3.88;3.15;;;;;21.40;98752.00;;;;5055594;28;20512;-66
2023/08/17 07:47:08;;;;;;;3.55;2.95;;;;;21.70;98766.00;;;;5055862;28;20056;-66
2023/08/17 07:49:35;;;;;;;2.95;2.75;;;;;21.90;98757.00;;;;5055549;28;20124;-66
2023/08/17 07:52:01;;;;;;;3.88;3.08;;;;;21.90;98753.00;;;;5072872;28;20040;-66
2023/08/17 07:54:28;;;;;;;3.92;2.85;;;;;21.70;98755.00;;;;5073647;28;20045;-66
2023/08/17 07:56:54;;;;;;;3.35;3.05;;;;;21.50;98758.00;;;;5073359;28;20507;-66
2023/08/17 07:59:21;;;;;;;4.43;2.72;;;;;21.50;98749.00;;;;5055234;28;20060;-66
2023/08/17 08:01:48;;;;;;;3.40;2.70;;;;;21.90;98744.00;;;;5073280;28;20045;-66
2023/08/17 08:04:14;;;;;;;2.58;2.35;;;;;22.10;98740.00;;;;5073849;28;20044;-65
2023/08/17 08:06:41;;;;;;;2.45;2.25;;;;;22.30;98732.00;;;;5039632;28;20055;-64
2023/08/17 08:09:08;;;;;;;3.15;2.95;;;;;22.50;98734.00;;;;5073565;28;20123;-65
2023/08/17 08:11:34;;;;;;;2.90;2.40;;;;;22.50;98733.00;;;;5073208;28;20052;-65
2023/08/17 08:14:01;;;;;;;3.28;2.97;;;;;22.40;98739.00;;;;5039025;28;20044;-65
2023/08/17 08:16:30;;;;;;;3.55;2.90;;;;;22.30;98741.00;;;;5055847;28;20060;-66
2023/08/17 08:18:57;;;;;;;3.42;2.65;;;;;22.40;98745.00;;;;5040326;28;20048;-67
2023/08/17 08:21:24;;;;;;;2.90;2.70;;;;;22.60;98741.00;;;;5074359;28;20044;-65
2023/08/17 08:23:50;;;;;;;3.50;3.20;;;;;22.80;98741.00;;;;5073044;28;20079;-65
2023/08/17 08:26:17;;;;;;;5.40;3.28;;;;;22.90;98743.00;;;;5055312;28;20047;-65
2023/08/17 08:28:44;;;;;;;3.08;2.78;;;;;22.90;98748.00;;;;5072979;28;20044;-65
2023/08/17 08:31:10;;;;;;;3.50;3.20;;;;;22.90;98747.00;;;;5072947;28;20071;-65
2023/08/17 08:33:37;;;;;;;3.55;3.25;;;;;23.00;98754.00;;;;5054878;28;20044;-65
2023/08/17 08:36:05;;;;;;;3.65;3.35;;;;;23.00;98752.00;;;;5038437;28;20044;-65
2023/08/17 08:38:32;;;;;;;3.95;3.17;;;;;23.10;98755.00;;;;5054618;28;20572;-65
2023/08/17 08:40:58;;;;;;;5.10;3.80;;;;;23.10;98751.00;;;;5072766;28;20055;-65
2023/08/17 08:43:25;;;;;;;4.03;3.42;;;;;23.10;98760.00;;;;5054454;28;20048;-65
2023/08/17 08:45:51;;;;;;;3.55;3.25;;;;;23.10;98755.00;;;;5072776;28;20043;-65
2023/08/17 08:48:19;;;;;;;6.35;5.22;;;;;23.10;98754.00;;;;5055005;28;20048;-65
2023/08/17 08:50:49;;;;;;;4.78;4.38;;;;;23.10;98756.00;;;;5054776;28;20488;-65
2023/08/17 08:53:19;;;;;;;5.47;4.32;;;;;23.20;98759.00;;;;5072753;28;20051;-65
2023/08/17 08:55:55;;;;;;;6.78;4.68;;;;;23.50;98749.00;;;;5054768;28;20070;-65
2023/08/17 08:58:22;;;;;;;6.30;4.65;;;;;23.60;98750.00;;;;5054518;28;20056;-65
2023/08/17 09:00:48;;;;;;;5.85;5.28;;;;;23.80;98750.00;;;;5072397;28;20052;-66
2023/08/17 09:03:20;;;;;;;6.28;5.10;;;;;24.10;98747.00;;;;5072313;28;20098;-66
2023/08/17 09:05:48;;;;;;;7.90;5.10;;;;;24.40;98741.00;;;;5055474;28;20040;-65
2023/08/17 09:08:15;;;;;;;5.68;5.20;;;;;24.40;98737.00;;;;5055492;28;20502;-65
2023/08/17 09:10:46;;;;;;;5.47;4.97;;;;;24.30;98739.00;;;;5073393;28;20075;-65
2023/08/17 09:13:13;;;;;;;5.88;4.72;;;;;24.50;98743.00;;;;5038467;28;20049;-65
2023/08/17 09:15:42;;;;;;;4.20;3.80;;;;;24.60;98742.00;;;;5038733;28;20048;-65
2023/08/17 09:18:10;;;;;;;4.40;4.00;;;;;24.70;98747.00;;;;5054357;28;20648;-66
2023/08/17 09:20:41;;;;;;;6.13;4.57;;;;;24.60;98744.00;;;;5037946;28;20040;-66
2023/08/17 09:23:13;;;;;;;5.20;4.80;;;;;24.50;98740.00;;;;5054847;28;20136;-66
2023/08/17 09:25:41;;;;;;;6.30;5.00;;;;;24.50;98739.00;;;;5055547;28;20560;-65
2023/08/17 09:28:09;;;;;;;6.13;4.30;;;;;24.40;98734.00;;;;5073267;28;20508;-70
2023/08/17 09:31:05;;;;;;;6.10;4.53;;;;;24.70;98736.00;;;;5072925;28;20067;-64
2023/08/17 09:33:32;;;;;;;5.95;4.43;;;;;24.70;98731.00;;;;5053326;28;20143;-64
2023/08/17 09:36:00;;;;;;;4.68;3.40;;;;;25.00;98735.00;;;;5054190;28;20043;-64
2023/08/17 09:38:27;;;;;;;7.80;7.03;;;;;25.10;98737.00;;;;5072086;28;20064;-65
2023/08/17 09:40:55;;;;;;;5.65;5.05;;;;;24.90;98734.00;;;;5037733;28;20079;-66
2023/08/17 09:43:22;;;;;;;5.85;5.25;;;;;24.80;98735.00;;;;5037649;28;20071;-66
2023/08/17 09:45:51;;;;;;;5.35;4.70;;;;;24.80;98728.00;;;;5072268;28;20040;-66
2023/08/17 09:48:19;;;;;;;5.93;5.32;;;;;24.80;98734.00;;;;5054214;28;20448;-68
2023/08/17 09:50:47;;;;;;;5.40;4.90;;;;;24.90;98739.00;;;;5071582;28;20527;-66
2023/08/17 09:53:16;;;;;;;5.88;5.25;;;;;25.10;98738.00;;;;5037570;28;20106;-65
2023/08/17 09:55:44;;;;;;;6.20;5.55;;;;;25.20;98745.00;;;;5053865;28;20139;-66
2023/08/17 09:58:17;;;;;;;6.53;5.82;;;;;25.10;98742.00;;;;5053968;28;20495;-64
2023/08/17 10:00:45;;;;;;;;;;;;;25.10;98728.00;;;;5054186;28;20067;-66
2023/08/17 10:03:18;;;;;;;5.87;5.30;;;;;25.20;98740.00;;;;5053756;28;19921;-64
2023/08/17 10:05:54;;;;;;;6.20;5.60;;;;;25.40;98741.00;;;;5071666;28;20041;-64
2023/08/17 10:08:22;;;;;;;7.00;6.07;;;;;25.30;98747.00;;;;5053714;28;20102;-65
2023/08/17 10:10:49;;;;;;;6.53;5.65;;;;;25.30;98736.00;;;;5053692;28;20436;-64
2023/08/17 10:13:40;;;;;;;6.45;5.95;;;;;25.40;98739.00;;;;5072043;28;20094;-64
2023/08/17 10:16:23;;;;;;;7.40;6.80;;;;;25.40;98738.00;;;;5057812;28;20401;-65
2023/08/17 10:19:06;;;;;;;6.22;5.00;;;;;25.30;98741.00;;;;5075921;28;20040;-65
2023/08/17 10:21:39;;;;;;;6.15;5.53;;;;;25.40;98741.00;;;;5057553;28;20079;-65
2023/08/17 10:24:07;;;;;;;5.18;4.68;;;;;25.60;98743.00;;;;5075020;28;20049;-65
2023/08/17 10:26:33;;;;;;;4.75;4.07;;;;;25.70;98742.00;;;;5075161;28;20040;-65
2023/08/17 10:29:02;;;;;;;5.63;5.20;;;;;25.70;98741.00;;;;5057235;28;20040;-66
2023/08/17 10:31:39;;;;;;;6.03;5.43;;;;;25.60;98737.00;;;;5075002;28;20044;-66
2023/08/17 10:34:06;;;;;;;6.10;5.43;;;;;25.50;98736.00;;;;5075125;28;20040;-66
2023/08/17 10:36:33;;;;;;;5.45;5.05;;;;;25.50;98735.00;;;;5074834;28;20478;-66
2023/08/17 10:39:18;;;;;;;5.88;5.00;;;;;25.90;98729.00;;;;5074931;28;20048;-66
2023/08/17 10:41:50;;;;;;;5.32;4.65;;;;;26.20;98725.00;;;;5040420;28;20048;-66
2023/08/17 10:44:43;;;;;;;4.55;4.20;;;;;26.50;98719.00;;;;5074746;28;20129;-66
2023/08/17 10:47:31;;;;;;;3.58;3.28;;;;;26.80;98721.00;;;;5057196;28;20404;-64
2023/08/17 10:50:04;;;;;;;6.57;4.07;;;;;26.90;98726.00;;;;5057599;28;20040;-63
2023/08/17 10:52:37;;;;;;;5.53;4.55;;;;;27.10;98728.00;;;;5075135;28;20044;-64
2023/08/17 10:55:05;;;;;;;4.70;4.15;;;;;26.90;98743.00;;;;5056800;28;20076;-64
2023/08/17 10:57:40;;;;;;;4.32;3.92;;;;;26.80;98748.00;;;;5057089;28;20055;-66
2023/08/17 11:00:13;;;;;;;5.25;4.72;;;;;26.80;98762.00;;;;5056396;28;20044;-66
2023/08/17 11:02:56;;;;;;;4.05;3.65;;;;;26.80;98778.00;;;;5074673;28;20102;-66
2023/08/17 11:05:37;;;;;;;4.20;3.20;;;;;26.80;98787.00;;;;5074533;28;20053;-66
2023/08/17 11:08:14;;;;;;;3.67;3.38;;;;;26.70;98786.00;;;;5056624;28;20055;-66
2023/08/17 11:10:43;;;;;;;3.55;3.25;;;;;26.70;98793.00;;;;5056202;28;20101;-66
2023/08/17 11:13:13;;;;;;;4.78;4.40;;;;;26.60;98799.00;;;;5074188;28;20079;-66
2023/08/17 11:15:44;;;;;;;8.27;4.95;;;;;26.50;98810.00;;;;5056131;28;20064;-66
2023/08/17 11:18:12;;;;;;;6.50;4.63;;;;;26.40;98814.00;;;;5074420;28;20041;-66
2023/08/17 11:20:40;;;;;;;4.38;3.97;;;;;26.30;98810.00;;;;5056366;28;20642;-66
2023/08/17 11:23:08;;;;;;;4.30;3.90;;;;;26.30;98811.00;;;;5074205;28;20057;-66
2023/08/17 11:25:36;;;;;;;4.53;4.03;;;;;26.20;98816.00;;;;5072880;28;20490;-66
2023/08/17 11:28:05;;;;;;;4.25;3.85;;;;;26.10;98812.00;;;;5056291;28;20525;-67
2023/08/17 11:30:34;;;;;;;4.80;3.50;;;;;26.00;98798.00;;;;5074121;28;20400;-66
2023/08/17 11:33:00;;;;;;;4.68;3.53;;;;;26.00;98794.00;;;;5073868;28;20066;-66
2023/08/17 11:35:27;;;;;;;4.65;3.42;;;;;25.90;98779.00;;;;5039281;28;20059;-66
2023/08/17 11:37:53;;;;;;;4.32;3.42;;;;;25.80;98786.00;;;;5056451;28;20047;-66
2023/08/17 11:40:20;;;;;;;4.93;3.25;;;;;25.50;98783.00;;;;5073865;28;20044;-66
2023/08/17 11:42:47;;;;;;;3.10;2.90;;;;;25.50;98785.00;;;;5074302;28;20048;-66
2023/08/17 11:45:14;;;;;;;5.60;3.70;;;;;25.40;98785.00;;;;5056338;28;20134;-66
2023/08/17 11:47:43;;;;;;;3.90;3.60;;;;;25.30;98777.00;;;;5074017;28;20044;-66
2023/08/17 11:50:11;;;;;;;4.68;3.50;;;;;25.10;98769.00;;;;5073798;28;20045;-66
2023/08/17 11:52:46;;;;;;;4.13;3.50;;;;;25.00;98757.00;;;;5056068;28;20059;-66
2023/08/17 11:55:17;;;;;;;3.78;3.47;;;;;25.00;98745.00;;;;5056116;28;20394;-66
2023/08/17 11:57:44;;;;;;;4.03;3.70;;;;;24.80;98736.00;;;;5055882;28;20040;-66
2023/08/17 12:00:18;;;;;;;3.88;3.58;;;;;24.60;98727.00;;;;5039718;28;20581;-66
2023/08/17 12:02:50;;;;;;;5.60;4.18;;;;;24.50;98724.00;;;;5056119;28;20055;-66
2023/08/17 12:05:23;;;;;;;5.00;4.25;;;;;24.40;98720.00;;;;5056186;28;20181;-66
2023/08/17 12:07:52;;;;;;;4.30;3.85;;;;;24.30;98718.00;;;;5056090;28;20048;-66
2023/08/17 12:10:19;;;;;;;4.57;3.88;;;;;24.30;98714.00;;;;5073146;28;20493;-66
2023/08/17 12:12:49;;;;;;;7.57;4.03;;;;;24.30;98719.00;;;;5073840;28;20044;-66
2023/08/17 12:15:16;;;;;;;6.03;5.28;;;;;24.30;98713.00;;;;5055826;28;20053;-68
2023/08/17 12:17:47;;;;;;;5.15;4.50;;;;;24.30;98714.00;;;;5055947;28;20051;-65
2023/08/17 12:20:18;;;;;;;5.05;4.55;;;;;24.50;98699.00;;;;5073676;28;20055;-66
2023/08/17 12:22:46;;;;;;;4.72;4.32;;;;;24.70;98706.00;;;;5073823;28;20124;-66